Time;durP1;ratioP1;P1;durP2;ratioP2;P2;SDS_P1;SDS_P2;PMS_P1;PMS_P2;Temp;Humidity;BMP_temperature;BMP_pressure;BME280_temperature;BME280_humidity;BME280_pressure;Samples;Min_cycle;Max_cycle;Signal;HPM_P1;HPM_P2
2023/05/11 00:01:32;;;;;;;;;;;;;;;10.95;100.00;96471.28;5042033;28;19918;-68
2023/05/11 00:03:58;;;;;;;;;;;;;;;11.08;100.00;96467.09;5033050;28;19980;-67
2023/05/11 00:06:23;;;;;;;;;;;;;;;11.03;100.00;96461.94;5030464;28;19921;-68
2023/05/11 00:08:48;;;;;;;;;;;;;;;10.96;100.00;96470.09;5045510;28;19928;-69
2023/05/11 00:11:14;;;;;;;;;;;;;;;10.86;100.00;96463.34;5039711;28;19920;-69
2023/05/11 00:13:39;;;;;;;;;;;;;;;10.90;100.00;96461.41;5044486;28;19917;-68
2023/05/11 00:16:05;;;;;;;;;;;;;;;10.70;100.00;96462.75;5039854;28;20332;-72
2023/05/11 00:18:30;;;;;;;;;;;;;;;10.71;100.00;96459.66;5026098;28;19963;-68
2023/05/11 00:20:56;;;;;;;;;;;;;;;10.94;100.00;96455.19;5044666;28;20043;-67
2023/05/11 00:23:21;;;;;;;;;;;;;;;10.95;100.00;96456.75;5040897;28;20084;-68
2023/05/11 00:25:46;;;;;;;;;;;;;;;11.05;100.00;96451.41;5044068;28;19917;-68
2023/05/11 00:28:12;;;;;;;;;;;;;;;11.15;100.00;96449.94;5039832;28;19921;-68
2023/05/11 00:30:38;;;;;;;;;;;;;;;11.14;100.00;96453.06;5044006;28;19923;-68
2023/05/11 00:33:04;;;;;;;;;;;;;;;11.03;100.00;96448.25;5041070;28;19917;-70
2023/05/11 00:35:30;;;;;;;;;;;;;;;11.12;100.00;96442.47;5025325;28;19927;-67
2023/05/11 00:37:56;;;;;;;;;;;;;;;11.08;100.00;96442.44;5044397;28;19923;-66
2023/05/11 00:40:21;;;;;;;;;;;;;;;11.11;100.00;96438.16;5032712;28;20529;-68
2023/05/11 00:42:46;;;;;;;;;;;;;;;10.97;100.00;96441.53;5060787;28;19984;-66
2023/05/11 00:45:11;;;;;;;;;;;;;;;10.89;100.00;96446.16;5045309;28;19920;-68
2023/05/11 00:47:37;;;;;;;;;;;;;;;10.95;100.00;96443.06;5044363;28;20007;-66
2023/05/11 00:50:02;;;;;;;;;;;;;;;10.86;100.00;96437.91;5043102;28;20297;-70
2023/05/11 00:52:28;;;;;;;;;;;;;;;10.89;100.00;96446.16;5040947;28;19920;-67
2023/05/11 00:54:53;;;;;;;;;;;;;;;10.83;100.00;96446.88;5042574;28;19917;-70
2023/05/11 00:57:20;;;;;;;;;;;;;;;10.88;100.00;96441.06;5038119;28;20425;-66
2023/05/11 00:59:46;;;;;;;;;;;;;;;10.83;100.00;96441.38;5042278;28;20332;-67
2023/05/11 01:02:11;;;;;;;;;;;;;;;10.79;100.00;96449.56;5037517;28;19921;-68
2023/05/11 01:04:37;;;;;;;;;;;;;;;10.79;100.00;96433.13;5043256;28;20015;-68
2023/05/11 01:07:05;;;;;;;;;;;;;;;10.83;100.00;96436.69;5049056;28;19932;-73
2023/05/11 01:09:31;;;;;;;;;;;;;;;10.93;100.00;96437.16;5060199;28;19920;-71
2023/05/11 01:12:06;;;;;;;;;;;;;;;10.86;100.00;96444.16;5028697;28;19921;-67
2023/05/11 01:14:40;;;;;;;;;;;;;;;10.76;100.00;96446.78;5024763;28;19984;-66
2023/05/11 01:17:09;;;;;;;;;;;;;;;10.69;100.00;96450.22;5038648;28;19924;-67
2023/05/11 01:19:42;;;;;;;;;;;;;;;10.57;100.00;96450.47;5042664;28;19924;-67
2023/05/11 01:22:34;;;;;;;;;;;;;;;10.56;100.00;96448.91;5038553;28;19987;-68
2023/05/11 01:25:02;;;;;;;;;;;;;;;10.78;100.00;96449.94;5009661;28;19973;-67
2023/05/11 01:27:30;;;;;;;;;;;;;;;10.71;100.00;96456.91;5037806;28;19925;-67
2023/05/11 01:29:55;;;;;;;;;;;;;;;10.69;100.00;96447.47;5025317;28;20275;-67
2023/05/11 01:32:22;;;;;;;;;;;;;;;10.78;100.00;96452.66;5038340;28;19935;-68
2023/05/11 01:34:50;;;;;;;;;;;;;;;10.82;100.00;96453.50;5042566;28;19921;-68
2023/05/11 01:37:21;;;;;;;;;;;;;;;10.78;100.00;96456.19;5038474;28;20433;-66
2023/05/11 01:39:54;;;;;;;;;;;;;;;10.60;100.00;96441.50;5024666;28;19944;-66
2023/05/11 01:42:21;;;;;;;;;;;;;;;10.56;100.00;96443.41;5037905;28;19927;-67
2023/05/11 01:44:49;;;;;;;;;;;;;;;10.49;100.00;96446.84;5042300;28;19947;-68
2023/05/11 01:47:15;;;;;;;;;;;;;;;10.51;100.00;96442.59;5037410;28;19932;-67
2023/05/11 01:49:42;;;;;;;;;;;;;;;10.48;100.00;96446.06;5024619;28;20300;-68
2023/05/11 01:52:09;;;;;;;;;;;;;;;10.40;100.00;96446.34;5036944;28;20332;-68
2023/05/11 01:54:35;;;;;;;;;;;;;;;10.40;100.00;96446.34;5043110;28;19920;-67
2023/05/11 01:57:01;;;;;;;;;;;;;;;10.44;100.00;96445.25;5042445;28;19916;-67
2023/05/11 01:59:27;;;;;;;;;;;;;;;10.42;100.00;96449.50;5037301;28;19923;-68
2023/05/11 02:01:53;;;;;;;;;;;;;;;10.36;100.00;96445.53;5041898;28;19974;-67
2023/05/11 02:04:19;;;;;;;;;;;;;;;10.27;100.00;96448.50;5038153;28;19917;-69
2023/05/11 02:06:46;;;;;;;;;;;;;;;10.12;100.00;96445.56;5041834;28;20304;-69
2023/05/11 02:09:11;;;;;;;;;;;;;;;10.16;100.00;96436.63;5036739;28;19964;-68
2023/05/11 02:11:39;;;;;;;;;;;;;;;10.26;100.00;96444.16;5042583;28;19978;-68
2023/05/11 02:14:05;;;;;;;;;;;;;;;10.35;100.00;96450.19;5036620;28;19924;-69
2023/05/11 02:16:31;;;;;;;;;;;;;;;10.33;100.00;96447.03;5041277;28;19948;-68
2023/05/11 02:18:57;;;;;;;;;;;;;;;10.30;100.00;96451.28;5039846;28;19924;-67
2023/05/11 02:21:24;;;;;;;;;;;;;;;10.35;100.00;96444.72;5034344;28;19925;-67
2023/05/11 02:23:50;;;;;;;;;;;;;;;10.32;100.00;96442.75;5041525;28;20292;-67
2023/05/11 02:26:15;;;;;;;;;;;;;;;10.30;100.00;96437.59;5036913;28;19964;-69
2023/05/11 02:28:41;;;;;;;;;;;;;;;10.24;100.00;96441.81;5040975;28;19953;-69
2023/05/11 02:31:09;;;;;;;;;;;;;;;10.25;100.00;96439.88;5037113;28;20011;-71
2023/05/11 02:33:37;;;;;;;;;;;;;;;10.25;100.00;96440.66;5042333;28;20379;-66
2023/05/11 02:36:05;;;;;;;;;;;;;;;10.35;100.00;96443.94;5038043;28;20421;-72
2023/05/11 02:38:33;;;;;;;;;;;;;;;10.37;100.00;96445.16;5041811;28;19921;-68
2023/05/11 02:41:01;;;;;;;;;;;;;;;10.46;100.00;96440.19;5042305;28;19920;-67
2023/05/11 02:43:29;;;;;;;;;;;;;;;10.55;100.00;96439.09;5036553;28;19931;-67
2023/05/11 02:45:58;;;;;;;;;;;;;;;10.58;100.00;96439.13;5041012;28;20382;-67
2023/05/11 02:48:27;;;;;;;;;;;;;;;10.63;100.00;96440.78;5036066;28;19921;-67
2023/05/11 02:50:54;;;;;;;;;;;;;;;10.56;100.00;96437.94;5040879;28;20035;-67
2023/05/11 02:53:20;;;;;;;;;;;;;;;10.33;100.00;96438.81;5016517;28;19920;-67
2023/05/11 02:55:46;;;;;;;;;;;;;;;10.21;100.00;96430.81;5041549;28;19917;-68
2023/05/11 02:58:11;;;;;;;;;;;;;;;10.17;100.00;96436.22;5035018;28;20332;-68
2023/05/11 03:00:37;;;;;;;;;;;;;;;10.27;100.00;96432.84;5041235;28;20023;-69
2023/05/11 03:03:02;;;;;;;;;;;;;;;10.28;100.00;96426.22;5038731;28;20016;-72
2023/05/11 03:05:28;;;;;;;;;;;;;;;10.22;100.00;96421.44;5036933;28;19923;-67
2023/05/11 03:07:56;;;;;;;;;;;;;;;10.30;100.00;96426.66;5023320;28;20358;-67
2023/05/11 03:10:21;;;;;;;;;;;;;;;10.23;100.00;96423.81;5018914;28;22686;-67
2023/05/11 03:12:47;;;;;;;;;;;;;;;10.30;100.00;96429.38;5041112;28;19924;-67
2023/05/11 03:15:13;;;;;;;;;;;;;;;10.39;100.00;96429.13;5036615;28;19967;-66
2023/05/11 03:17:39;;;;;;;;;;;;;;;10.39;100.00;96429.13;5041641;28;19925;-69
2023/05/11 03:20:06;;;;;;;;;;;;;;;10.43;100.00;96427.22;5019253;28;19917;-74
2023/05/11 03:22:32;;;;;;;;;;;;;;;10.40;100.00;96427.19;5041100;28;19924;-68
2023/05/11 03:24:57;;;;;;;;;;;;;;;10.41;100.00;96429.56;5040208;28;19917;-69
2023/05/11 03:27:23;;;;;;;;;;;;;;;10.40;100.00;96421.72;5040001;28;20679;-68
2023/05/11 03:29:49;;;;;;;;;;;;;;;10.42;100.00;96427.59;5051819;28;19951;-67
2023/05/11 03:32:14;;;;;;;;;;;;;;;10.48;100.00;96426.13;5049754;28;20019;-69
2023/05/11 03:34:39;;;;;;;;;;;;;;;10.47;100.00;96425.31;5054106;28;20304;-69
2023/05/11 03:37:05;;;;;;;;;;;;;;;10.46;100.00;96425.69;5048034;28;19917;-72
2023/05/11 03:39:31;;;;;;;;;;;;;;;10.40;100.00;96429.91;5054519;28;19983;-67
2023/05/11 03:41:58;;;;;;;;;;;;;;;10.39;100.00;96425.59;5054094;28;20399;-67
2023/05/11 03:44:24;;;;;;;;;;;;;;;10.35;100.00;96424.78;5031812;28;19988;-67
2023/05/11 03:46:51;;;;;;;;;;;;;;;10.28;100.00;96426.22;5053635;28;19928;-70
2023/05/11 03:49:17;;;;;;;;;;;;;;;10.32;100.00;96423.56;5031069;28;19923;-67
2023/05/11 03:51:43;;;;;;;;;;;;;;;10.29;100.00;96418.81;5055800;28;19917;-67
2023/05/11 03:54:08;;;;;;;;;;;;;;;10.31;100.00;96417.28;5050576;28;19916;-68
2023/05/11 03:56:34;;;;;;;;;;;;;;;10.32;100.00;96413.41;5054821;28;20297;-68
2023/05/11 03:59:00;;;;;;;;;;;;;;;10.35;100.00;96422.03;5055155;28;19928;-68
2023/05/11 04:01:26;;;;;;;;;;;;;;;10.18;100.00;96417.88;5032825;28;19920;-67
2023/05/11 04:03:52;;;;;;;;;;;;;;;10.21;100.00;96415.19;5055037;28;19917;-67
2023/05/11 04:06:17;;;;;;;;;;;;;;;10.23;100.00;96412.88;5050761;28;19917;-67
2023/05/11 04:08:43;;;;;;;;;;;;;;;10.25;100.00;96407.03;5054843;28;19927;-68
2023/05/11 04:11:08;;;;;;;;;;;;;;;10.25;100.00;96410.53;5047883;28;19967;-68
2023/05/11 04:13:34;;;;;;;;;;;;;;;10.29;100.00;96416.06;5045057;28;19917;-66
2023/05/11 04:15:59;;;;;;;;;;;;;;;10.31;100.00;96420.03;5053377;28;19976;-69
2023/05/11 04:18:25;;;;;;;;;;;;;;;10.27;100.00;96410.19;5049888;28;19924;-68
2023/05/11 04:20:50;;;;;;;;;;;;;;;10.23;100.00;96406.63;5042056;28;19917;-68
2023/05/11 04:23:15;;;;;;;;;;;;;;;10.23;100.00;96409.34;5057520;28;19978;-67
2023/05/11 04:25:40;;;;;;;;;;;;;;;10.23;100.00;96409.34;5044638;28;19928;-67
2023/05/11 04:28:06;;;;;;;;;;;;;;;10.28;100.00;96409.00;5039877;28;19924;-68
2023/05/11 04:30:31;;;;;;;;;;;;;;;10.23;100.00;96403.88;5043831;28;19921;-68
2023/05/11 04:32:56;;;;;;;;;;;;;;;10.03;100.00;96409.47;5043872;28;19931;-68
2023/05/11 04:35:23;;;;;;;;;;;;;;;9.89;100.00;96410.06;5039909;28;20346;-70
2023/05/11 04:37:48;;;;;;;;;;;;;;;9.77;100.00;96402.84;5041271;28;19921;-67
2023/05/11 04:40:14;;;;;;;;;;;;;;;9.88;100.00;96407.69;5020924;28;20316;-68
2023/05/11 04:42:39;;;;;;;;;;;;;;;10.04;100.00;96411.03;5044314;28;19971;-69
2023/05/11 04:45:05;;;;;;;;;;;;;;;10.19;100.00;96408.50;5039692;28;19986;-69
2023/05/11 04:47:30;;;;;;;;;;;;;;;10.14;100.00;96406.88;5049931;28;19996;-69
2023/05/11 04:49:55;;;;;;;;;;;;;;;10.19;100.00;96413.97;5061914;28;19917;-70
2023/05/11 04:52:21;;;;;;;;;;;;;;;10.18;100.00;96410.44;5048113;28;19998;-68
2023/05/11 04:54:46;;;;;;;;;;;;;;;10.35;100.00;96405.59;5048690;28;19924;-68
2023/05/11 04:57:11;;;;;;;;;;;;;;;10.39;100.00;96411.91;5038436;28;19928;-67
2023/05/11 04:59:36;;;;;;;;;;;;;;;10.36;100.00;96418.94;5043378;28;20011;-67
2023/05/11 05:02:02;;;;;;;;;;;;;;;10.40;100.00;96413.50;5042431;28;20358;-70
2023/05/11 05:04:27;;;;;;;;;;;;;;;10.45;100.00;96419.44;5040856;28;19956;-67
2023/05/11 05:06:52;;;;;;;;;;;;;;;10.48;100.00;96409.69;5042393;28;19920;-69
2023/05/11 05:09:18;;;;;;;;;;;;;;;10.51;100.00;96411.66;5037567;28;19982;-67
2023/05/11 05:11:43;;;;;;;;;;;;;;;10.52;100.00;96419.50;5025563;28;20015;-69
2023/05/11 05:14:08;;;;;;;;;;;;;;;10.59;100.00;96416.06;5019654;28;19925;-69
2023/05/11 05:16:33;;;;;;;;;;;;;;;10.69;100.00;96420.09;5042418;28;19921;-67
2023/05/11 05:18:59;;;;;;;;;;;;;;;10.65;100.00;96424.75;5025315;28;20020;-67
2023/05/11 05:21:24;;;;;;;;;;;;;;;10.64;100.00;96421.22;5037976;28;19927;-67
2023/05/11 05:23:49;;;;;;;;;;;;;;;10.52;100.00;96419.50;5025167;28;20523;-69
2023/05/11 05:26:15;;;;;;;;;;;;;;;10.58;100.00;96417.22;5038373;28;19916;-68
2023/05/11 05:28:40;;;;;;;;;;;;;;;10.62;100.00;96418.06;5044214;28;20374;-68
2023/05/11 05:31:05;;;;;;;;;;;;;;;10.60;100.00;96425.84;5039537;28;19925;-68
2023/05/11 05:33:30;;;;;;;;;;;;;;;10.58;100.00;96421.94;5024592;28;20003;-67
2023/05/11 05:35:56;;;;;;;;;;;;;;;10.62;100.00;96426.25;5024422;28;19924;-67
2023/05/11 05:38:21;;;;;;;;;;;;;;;10.76;100.00;96424.88;5038868;28;21322;-69
2023/05/11 05:40:46;;;;;;;;;;;;;;;10.84;100.00;96415.53;5039960;28;19978;-68
2023/05/11 05:43:12;;;;;;;;;;;;;;;10.95;100.00;96424.69;5003526;28;19917;-69
2023/05/11 05:45:37;;;;;;;;;;;;;;;11.00;100.00;96427.09;5042085;28;19916;-69
2023/05/11 05:48:04;;;;;;;;;;;;;;;11.05;100.00;96424.00;5021854;28;19940;-72
2023/05/11 05:50:30;;;;;;;;;;;;;;;11.01;100.00;96423.19;5041385;28;19924;-70
2023/05/11 05:52:55;;;;;;;;;;;;;;;11.11;100.00;96432.69;5041887;28;19929;-68
2023/05/11 05:55:21;;;;;;;;;;;;;;;11.21;100.00;96428.47;5037334;28;20517;-69
2023/05/11 05:57:46;;;;;;;;;;;;;;;11.36;100.00;96430.19;5042290;28;19927;-70
2023/05/11 06:00:12;;;;;;;;;;;;;;;11.36;100.00;96424.69;5019595;28;19978;-71
2023/05/11 06:02:37;;;;;;;;;;;;;;;11.41;100.00;96431.78;5042204;28;19921;-68
2023/05/11 06:05:03;;;;;;;;;;;;;;;11.73;100.00;96429.28;5040854;28;20373;-74
2023/05/11 06:07:28;;;;;;;;;;;;;;;12.02;100.00;96433.03;5038654;28;19921;-70
2023/05/11 06:09:53;;;;;;;;;;;;;;;11.97;100.00;96427.13;5007114;28;19990;-69
2023/05/11 06:12:18;;;;;;;;;;;;;;;12.00;100.00;96432.63;5036844;28;19920;-69
2023/05/11 06:14:44;;;;;;;;;;;;;;;11.85;100.00;96429.00;5041876;28;20007;-68
2023/05/11 06:17:09;;;;;;;;;;;;;;;11.94;100.00;96431.44;5003210;28;20266;-68
2023/05/11 06:19:35;;;;;;;;;;;;;;;12.08;100.00;96433.47;5041663;28;19917;-69
2023/05/11 06:22:00;;;;;;;;;;;;;;;12.24;100.00;96438.66;5042411;28;19917;-68
2023/05/11 06:24:25;;;;;;;;;;;;;;;12.19;100.00;96434.34;5036291;28;19921;-67
2023/05/11 06:26:50;;;;;;;;;;;;;;;12.30;100.00;96428.09;5024259;28;19921;-68
2023/05/11 06:29:16;;;;;;;;;;;;;;;12.29;100.00;96427.31;5033831;28;19917;-68
2023/05/11 06:31:41;;;;;;;;;;;;;;;12.01;100.00;96433.41;5023594;28;20003;-68
2023/05/11 06:34:08;;;;;;;;;;;;;;;11.95;100.00;96429.47;5019220;28;20015;-68
2023/05/11 06:36:33;;;;;;;;;;;;;;;11.98;100.00;96432.25;5041921;28;20048;-68
2023/05/11 06:38:58;;;;;;;;;;;;;;;11.83;100.00;96433.28;5041798;28;20460;-70
2023/05/11 06:41:24;;;;;;;;;;;;;;;11.85;100.00;96425.47;5037312;28;20011;-69
2023/05/11 06:43:49;;;;;;;;;;;;;;;11.95;100.00;96430.25;5041596;28;20365;-69
2023/05/11 06:46:16;;;;;;;;;;;;;;;11.83;100.00;96430.56;5036661;28;20290;-69
2023/05/11 06:48:42;;;;;;;;;;;;;;;11.79;100.00;96426.97;5023268;28;19978;-69
2023/05/11 06:51:10;;;;;;;;;;;;;;;11.86;100.00;96427.81;5035836;28;20107;-68
2023/05/11 06:53:36;;;;;;;;;;;;;;;11.89;100.00;96417.25;5041995;28;19916;-68
2023/05/11 06:56:02;;;;;;;;;;;;;;;11.75;100.00;96426.94;5042362;28;19923;-67
2023/05/11 06:58:27;;;;;;;;;;;;;;;11.59;100.00;96427.22;5036088;28;20488;-67
2023/05/11 07:00:52;;;;;;;;;;;;;;;11.60;100.00;96420.56;5024601;28;20345;-67
2023/05/11 07:03:18;;;;;;;;;;;;;;;11.69;100.00;96424.97;5041440;28;20016;-67
2023/05/11 07:05:43;;;;;;;;;;;;;;;11.80;100.00;96426.59;5045682;28;19978;-67
2023/05/11 07:08:09;;;;;;;;;;;;;;;11.95;100.00;96430.25;5039359;28;20305;-67
2023/05/11 07:10:35;;;;;;;;;;;;;;;11.95;100.00;96427.50;5027993;28;20015;-67
2023/05/11 07:13:00;;;;;;;;;;;;;;;11.95;100.00;96424.75;5044684;28;19921;-68
2023/05/11 07:15:25;;;;;;;;;;;;;;;12.03;100.00;96425.63;5021739;28;19928;-71
2023/05/11 07:17:51;;;;;;;;;;;;;;;12.01;100.00;96425.19;5045798;28;19924;-70
2023/05/11 07:20:16;;;;;;;;;;;;;;;12.01;100.00;96428.75;5039919;28;19917;-69
2023/05/11 07:22:41;;;;;;;;;;;;;;;12.01;100.00;96428.75;5044957;28;20011;-67
2023/05/11 07:25:08;;;;;;;;;;;;;;;12.03;100.00;96433.84;5040929;28;19917;-67
2023/05/11 07:27:33;;;;;;;;;;;;;;;12.08;100.00;96430.72;5026600;28;19970;-67
2023/05/11 07:29:59;;;;;;;;;;;;;;;12.07;100.00;96426.41;5027228;28;19964;-69
2023/05/11 07:32:24;;;;;;;;;;;;;;;12.02;100.00;96430.28;5040601;28;19916;-68
2023/05/11 07:34:49;;;;;;;;;;;;;;;11.99;100.00;96431.09;5042631;28;19917;-68
2023/05/11 07:37:15;;;;;;;;;;;;;;;11.98;100.00;96425.97;5029372;28;19916;-67
2023/05/11 07:39:40;;;;;;;;;;;;;;;12.00;100.00;96429.13;5044140;28;19921;-70
2023/05/11 07:42:05;;;;;;;;;;;;;;;11.88;100.00;96426.66;5021291;28;19917;-70
2023/05/11 07:44:30;;;;;;;;;;;;;;;11.87;100.00;96420.38;5027120;28;19917;-70
2023/05/11 07:46:57;;;;;;;;;;;;;;;11.86;100.00;96421.53;5025709;28;19929;-69
2023/05/11 07:49:22;;;;;;;;;;;;;;;12.05;100.00;96420.53;5040053;28;20193;-70
2023/05/11 07:51:48;;;;;;;;;;;;;;;12.29;100.00;96421.81;5042390;28;19923;-69
2023/05/11 07:54:13;;;;;;;;;;;;;;;12.46;100.00;96423.09;5040964;28;19917;-69
2023/05/11 07:56:38;;;;;;;;;;;;;;;12.32;100.00;96421.06;5045392;28;19921;-69
2023/05/11 07:59:04;;;;;;;;;;;;;;;12.71;100.00;96417.69;5041369;28;20011;-74
2023/05/11 08:01:34;;;;;;;;;;;;;;;12.88;100.00;96413.44;5041462;28;19917;-69
2023/05/11 08:04:00;;;;;;;;;;;;;;;13.24;100.00;96416.25;5061365;28;20471;-68
2023/05/11 08:06:25;;;;;;;;;;;;;;;13.58;100.00;96415.91;5056904;28;19943;-69
2023/05/11 08:08:50;;;;;;;;;;;;;;;13.87;100.00;96416.66;5049915;28;19947;-69
2023/05/11 08:11:16;;;;;;;;;;;;;;;14.25;100.00;96416.22;5039189;28;20364;-67
2023/05/11 08:13:41;;;;;;;;;;;;;;;14.61;100.00;96414.16;5025310;28;19917;-69
2023/05/11 08:16:06;;;;;;;;;;;;;;;14.95;100.00;96415.56;5039049;28;19959;-69
2023/05/11 08:18:32;;;;;;;;;;;;;;;14.98;100.00;96409.25;5044584;28;19916;-67
2023/05/11 08:20:57;;;;;;;;;;;;;;;15.36;98.45;96406.63;5044441;28;19979;-69
2023/05/11 08:23:23;;;;;;;;;;;;;;;15.16;97.67;96412.69;5040555;28;19917;-70
2023/05/11 08:25:52;;;;;;;;;;;;;;;15.47;92.94;96410.91;5043686;28;19921;-68
2023/05/11 08:28:18;;;;;;;;;;;;;;;14.79;98.80;96411.31;5046989;28;20367;-70
2023/05/11 08:30:43;;;;;;;;;;;;;;;14.91;99.81;96413.63;5064407;28;19948;-69
2023/05/11 08:33:08;;;;;;;;;;;;;;;15.44;94.73;96414.47;5055236;28;19931;-67
2023/05/11 08:35:33;;;;;;;;;;;;;;;15.27;95.59;96410.66;5044109;28;19917;-68
2023/05/11 08:37:59;;;;;;;;;;;;;;;15.98;90.96;96403.00;5044446;28;19916;-67
2023/05/11 08:40:25;;;;;;;;;;;;;;;16.05;86.53;96404.91;5040425;28;19921;-68
2023/05/11 08:42:53;;;;;;;;;;;;;;;15.68;90.87;96400.84;5043209;28;19920;-68
2023/05/11 08:45:19;;;;;;;;;;;;;;;16.34;84.73;96397.09;5038996;28;19975;-67
2023/05/11 08:47:46;;;;;;;;;;;;;;;16.46;84.00;96401.31;5024462;28;19925;-68
2023/05/11 08:50:11;;;;;;;;;;;;;;;17.15;76.00;96409.53;5039508;28;19921;-69
2023/05/11 08:52:37;;;;;;;;;;;;;;;17.42;73.31;96400.47;5042106;28;19964;-68
2023/05/11 08:55:02;;;;;;;;;;;;;;;16.98;75.22;96408.59;5044344;28;20300;-73
2023/05/11 08:57:29;;;;;;;;;;;;;;;16.82;71.91;96406.41;5040164;28;19917;-67
2023/05/11 08:59:55;;;;;;;;;;;;;;;17.81;72.19;96397.06;5043360;28;20019;-68
2023/05/11 09:02:20;;;;;;;;;;;;;;;18.32;66.29;96392.19;5038344;28;19917;-67
2023/05/11 09:04:46;;;;;;;;;;;;;;;18.50;64.95;96391.84;5042294;28;20363;-69
2023/05/11 09:07:13;;;;;;;;;;;;;;;17.93;65.86;96399.25;5019968;28;19979;-68
2023/05/11 09:09:40;;;;;;;;;;;;;;;18.42;63.51;96390.44;5038221;28;19924;-69
2023/05/11 09:12:06;;;;;;;;;;;;;;;18.82;62.06;96387.66;5020457;28;19923;-66
2023/05/11 09:14:32;;;;;;;;;;;;;;;19.49;57.05;96389.34;5043032;28;19917;-67
2023/05/11 09:16:57;;;;;;;;;;;;;;;19.46;59.40;96392.97;5041886;28;20327;-70
2023/05/11 09:19:22;;;;;;;;;;;;;;;19.34;53.67;96391.69;5037348;28;20325;-69
2023/05/11 09:21:48;;;;;;;;;;;;;;;18.85;55.80;96384.03;5042820;28;19917;-67
2023/05/11 09:24:13;;;;;;;;;;;;;;;18.78;60.12;96380.59;5037905;28;19970;-68
2023/05/11 09:26:38;;;;;;;;;;;;;;;17.67;61.98;96383.44;5042453;28;19947;-68
2023/05/11 09:29:04;;;;;;;;;;;;;;;18.22;61.39;96386.84;5039217;28;19917;-70
2023/05/11 09:31:45;;;;;;;;;;;;;;;18.34;59.50;96383.44;5042587;28;19916;-67
2023/05/11 09:34:16;;;;;;;;;;;;;;;18.21;58.72;96383.31;5037498;28;20432;-67
2023/05/11 09:36:42;;;;;;;;;;;;;;;18.15;59.79;96376.69;5042303;28;19923;-67
2023/05/11 09:39:07;;;;;;;;;;;;;;;18.14;60.64;96373.13;5036280;28;19924;-68
2023/05/11 09:41:33;;;;;;;;;;;;;;;18.17;61.94;96379.81;5042553;28;19921;-69
2023/05/11 09:44:07;;;;;;;;;;;;;;;17.31;61.35;96382.03;5042886;28;19974;-68
2023/05/11 09:46:32;;;;;;;;;;;;;;;17.24;62.44;96381.34;5041712;28;19917;-68
2023/05/11 09:49:01;;;;;;;;;;;;;;;17.23;60.03;96377.00;5043285;28;19932;-69
2023/05/11 09:51:31;;;;;;;;;;;;;;;16.70;62.31;96379.31;5020041;28;20366;-68
2023/05/11 09:53:57;;;;;;;;;;;;;;;16.33;62.57;96381.72;5049827;28;19924;-68
2023/05/11 09:56:22;;;;;;;;;;;;;;;15.74;71.26;96370.88;5050852;28;20414;-69
2023/05/11 09:58:50;;;;;;;;;;;;;;;15.11;76.75;96357.94;5043074;28;19917;-67
2023/05/11 10:01:16;;;;;;;;;;;;;;;14.15;83.87;96370.97;5037446;28;20015;-67
2023/05/11 10:03:44;;;;;;;;;;;;;;;13.95;86.97;96363.19;5043373;28;20063;-65
2023/05/11 10:06:09;;;;;;;;;;;;;;;13.85;86.62;96361.22;5037391;28;20030;-68
2023/05/11 10:08:35;;;;;;;;;;;;;;;13.98;91.35;96358.84;5007342;28;19921;-68
2023/05/11 10:11:01;;;;;;;;;;;;;;;13.92;93.91;96360.44;5041917;28;19921;-70
2023/05/11 10:13:27;;;;;;;;;;;;;;;14.11;90.46;96359.97;5019508;28;20012;-68
2023/05/11 10:15:53;;;;;;;;;;;;;;;14.07;93.08;96353.69;5041873;28;20016;-68
2023/05/11 10:18:18;;;;;;;;;;;;;;;14.10;93.84;96358.41;5034650;28;19924;-70
2023/05/11 10:20:44;;;;;;;;;;;;;;;14.03;93.41;96361.19;5042729;28;19917;-69
2023/05/11 10:23:10;;;;;;;;;;;;;;;13.61;100.00;96354.56;5037362;28;19921;-69
2023/05/11 10:25:35;;;;;;;;;;;;;;;13.85;100.00;96358.47;5041641;28;20019;-70
2023/05/11 10:28:01;;;;;;;;;;;;;;;13.75;100.00;96351.78;5042440;28;19928;-70
2023/05/11 10:30:26;;;;;;;;;;;;;;;13.64;100.00;96351.03;5037419;28;19917;-68
2023/05/11 10:32:54;;;;;;;;;;;;;;;13.55;100.00;96345.16;5041683;28;20337;-70
2023/05/11 10:35:19;;;;;;;;;;;;;;;13.75;100.00;96342.75;5038765;28;19927;-72
2023/05/11 10:37:45;;;;;;;;;;;;;;;13.84;100.00;96345.88;5046805;28;20325;-71
2023/05/11 10:40:10;;;;;;;;;;;;;;;13.92;100.00;96352.19;5043309;28;19925;-69
2023/05/11 10:42:45;;;;;;;;;;;;;;;13.86;100.00;96353.75;5048272;28;19978;-71
2023/05/11 10:45:29;;;;;;;;;;;;;;;14.37;100.00;96343.34;5043050;28;19916;-69
2023/05/11 10:47:57;;;;;;;;;;;;;;;14.17;100.00;96343.84;5029391;28;19924;-70
2023/05/11 10:50:32;;;;;;;;;;;;;;;14.61;100.00;96339.72;5043848;28;19925;-69
2023/05/11 10:53:17;;;;;;;;;;;;;;;15.09;100.00;96338.28;5048063;28;19925;-69
2023/05/11 10:56:01;;;;;;;;;;;;;;;14.55;100.00;96341.31;5047603;28;19964;-71
2023/05/11 10:58:34;;;;;;;;;;;;;;;14.94;93.04;96337.56;5025100;28;19975;-70
2023/05/11 11:01:12;;;;;;;;;;;;;;;14.83;92.89;96332.13;5049565;28;19956;-70
2023/05/11 11:03:37;;;;;;;;;;;;;;;14.44;97.44;96335.88;5060016;28;19920;-69
2023/05/11 11:06:03;;;;;;;;;;;;;;;14.32;100.00;96334.31;5056827;28;19932;-72
2023/05/11 11:08:48;;;;;;;;;;;;;;;14.26;99.52;96335.94;5030097;28;20289;-69
2023/05/11 11:11:30;;;;;;;;;;;;;;;14.26;100.00;96335.94;5044179;28;20007;-69
2023/05/11 11:13:56;;;;;;;;;;;;;;;14.32;100.00;96337.09;5048453;28;19969;-68
2023/05/11 11:16:23;;;;;;;;;;;;;;;13.94;100.00;96341.56;5042093;28;20089;-69
2023/05/11 11:18:49;;;;;;;;;;;;;;;13.94;100.00;96336.03;5047038;28;20090;-69
2023/05/11 11:21:34;;;;;;;;;;;;;;;13.85;100.00;96335.69;5041829;28;20000;-68
2023/05/11 11:24:02;;;;;;;;;;;;;;;13.76;100.00;96336.09;5048082;28;19921;-69
2023/05/11 11:26:47;;;;;;;;;;;;;;;13.92;100.00;96325.44;5044097;28;19921;-69
2023/05/11 11:29:12;;;;;;;;;;;;;;;13.60;100.00;96331.00;5043574;28;19929;-68
2023/05/11 11:31:40;;;;;;;;;;;;;;;13.25;100.00;96329.03;5048043;28;19973;-68
2023/05/11 11:34:25;;;;;;;;;;;;;;;13.35;100.00;96325.53;5042567;28;19916;-68
2023/05/11 11:37:05;;;;;;;;;;;;;;;13.48;100.00;96326.69;5047899;28;20332;-69
2023/05/11 11:39:39;;;;;;;;;;;;;;;13.29;100.00;96332.53;5046849;28;20301;-68
2023/05/11 11:42:06;;;;;;;;;;;;;;;13.11;100.00;96327.84;5043131;28;19921;-70
2023/05/11 11:44:35;;;;;;;;;;;;;;;13.13;100.00;96324.72;5048138;28;20355;-69
2023/05/11 11:47:12;;;;;;;;;;;;;;;13.22;100.00;96324.28;5025768;28;19936;-68
2023/05/11 11:49:38;;;;;;;;;;;;;;;13.31;100.00;96331.03;5044225;28;20250;-69
2023/05/11 11:52:05;;;;;;;;;;;;;;;13.32;100.00;96331.81;5041204;28;19970;-73
2023/05/11 11:54:38;;;;;;;;;;;;;;;13.35;97.21;96331.03;5045650;28;19977;-69
2023/05/11 11:57:03;;;;;;;;;;;;;;;13.34;96.13;96340.44;5042386;28;19917;-73
2023/05/11 11:59:29;;;;;;;;;;;;;;;13.16;96.36;96343.97;5042926;28;20540;-68
2023/05/11 12:01:55;;;;;;;;;;;;;;;12.75;100.00;96343.53;5043966;28;19931;-68
2023/05/11 12:04:35;;;;;;;;;;;;;;;12.72;100.00;96347.03;5047019;28;19931;-69
2023/05/11 12:07:02;;;;;;;;;;;;;;;12.82;100.00;96352.56;5046949;28;20506;-70
2023/05/11 12:09:27;;;;;;;;;;;;;;;13.15;96.89;96361.63;5037990;28;19917;-68
2023/05/11 12:11:53;;;;;;;;;;;;;;;13.27;97.61;96352.22;5024791;28;20263;-69
2023/05/11 12:14:20;;;;;;;;;;;;;;;13.41;100.00;96354.19;5033078;28;19917;-68
2023/05/11 12:17:07;;;;;;;;;;;;;;;13.53;100.00;96361.28;5027812;28;19920;-69
2023/05/11 12:19:32;;;;;;;;;;;;;;;12.47;100.00;96353.25;5044324;28;19921;-69
2023/05/11 12:21:57;;;;;;;;;;;;;;;12.31;100.00;96359.06;5044458;28;20048;-69
2023/05/11 12:24:23;;;;;;;;;;;;;;;12.38;100.00;96359.09;5039510;28;20704;-69
2023/05/11 12:26:48;;;;;;;;;;;;;;;12.39;100.00;96355.19;5042321;28;19917;-67
2023/05/11 12:29:14;;;;;;;;;;;;;;;12.66;100.00;96348.56;5038467;28;19924;-69
2023/05/11 12:31:43;;;;;;;;;;;;;;;12.89;100.00;96348.25;5044315;28;19921;-70
2023/05/11 12:34:15;;;;;;;;;;;;;;;13.05;100.00;96345.13;5038978;28;19939;-70
2023/05/11 12:36:40;;;;;;;;;;;;;;;13.24;100.00;96336.50;5044178;28;20083;-69